LQTZ/TZL METAR and TAF weather

Enter ICAO airport designator
Station Type Date Time Source
LQTZ METAR 2021/05/10 01:00 UTC NOAA

LQTZ 100100Z VRB02KT CAVOK 05/05 Q1017


Station Type Date Time Source
LQTZ Decoded METAR 2021/05/10 01:00 UTC NOAA

Tuzla, Bosnia and Herzegovina (LQTZ) 44-33N 018-42E
May 09, 2021 - 09:00 PM EDT / 2021.05.10 0100 UTC
Wind: Variable at 2 MPH (2 KT):0
Visibility: greater than 7 mile(s):0
Temperature: 41 F (5 C)
Dew Point: 41 F (5 C)
Relative Humidity: 100%
Pressure (altimeter): 30.03 in. Hg (1017 hPa)
ob: LQTZ 100100Z VRB02KT CAVOK 05/05 Q1017
cycle: 1

Station Type Date Time Source
LQTZ TAF 2021/05/09 18:08 UTC NOAA

TAF LQTZ 091700Z 0918/1018 VRB02KT CAVOK TX27/1014Z TN03/1004Z PROB40
TEMPO 1012/1017 09010KT

Example: see airport list